createdAt,value
2019-02-20T00:00:55.853Z,2.82
2019-02-20T00:03:28.028Z,2.76
2019-02-20T00:06:01.214Z,2.74
2019-02-20T00:08:33.211Z,2.67
2019-02-20T00:11:05.195Z,2.62
2019-02-20T00:13:37.236Z,2.56
2019-02-20T00:16:09.228Z,2.62
2019-02-20T00:18:41.304Z,2.57
2019-02-20T00:21:13.343Z,2.55
2019-02-20T00:23:45.321Z,2.47
2019-02-20T00:26:17.339Z,2.45
2019-02-20T00:28:49.314Z,2.43
2019-02-20T00:31:21.276Z,2.39
2019-02-20T00:33:53.249Z,2.40
2019-02-20T00:36:25.251Z,2.46
2019-02-20T00:38:57.223Z,2.47
2019-02-20T00:41:29.259Z,2.50
2019-02-20T00:44:17.106Z,2.46
2019-02-20T00:47:05.896Z,2.48
2019-02-20T00:49:41.544Z,2.53
2019-02-20T00:52:26.300Z,2.59
2019-02-20T00:54:58.284Z,2.68
2019-02-20T00:57:30.285Z,2.71
2019-02-20T01:00:02.612Z,2.80
2019-02-20T01:02:34.614Z,2.82
2019-02-20T01:05:06.583Z,2.91
2019-02-20T01:07:38.563Z,3.01
2019-02-20T01:10:10.521Z,3.08
2019-02-20T01:12:42.514Z,3.11
2019-02-20T01:15:14.494Z,3.15
2019-02-20T01:17:46.494Z,3.18
2019-02-20T01:20:18.579Z,3.21
2019-02-20T01:22:59.432Z,3.23
2019-02-20T01:25:24.491Z,3.24
2019-02-20T01:27:56.580Z,3.31
2019-02-20T01:30:28.605Z,3.26
2019-02-20T01:33:01.702Z,3.21
2019-02-20T01:35:33.662Z,3.19
2019-02-20T01:38:05.665Z,3.06
2019-02-20T01:40:37.639Z,2.96
2019-02-20T01:43:09.648Z,2.89
2019-02-20T01:45:41.601Z,2.88
2019-02-20T01:48:13.582Z,2.84
2019-02-20T01:50:45.543Z,2.85
2019-02-20T01:53:17.607Z,2.85
2019-02-20T01:55:50.469Z,2.77
2019-02-20T01:58:22.474Z,2.79
2019-02-20T02:00:54.478Z,2.73
2019-02-20T02:03:26.451Z,2.69
2019-02-20T02:05:58.409Z,2.68
2019-02-20T02:08:30.400Z,2.63
2019-02-20T02:11:02.345Z,2.59
2019-02-20T02:13:34.329Z,2.57
2019-02-20T02:16:06.296Z,2.54
2019-02-20T02:18:39.429Z,2.44
2019-02-20T02:21:11.407Z,2.39
2019-02-20T02:23:43.401Z,2.33
2019-02-20T02:26:15.359Z,2.27
2019-02-20T02:28:47.347Z,2.14
2019-02-20T02:31:19.317Z,2.19
2019-02-20T02:33:51.304Z,2.19
2019-02-20T02:36:24.360Z,2.20
2019-02-20T02:38:56.460Z,2.18
2019-02-20T02:41:28.411Z,2.24
2019-02-20T02:44:02.223Z,2.17
2019-02-20T02:46:34.174Z,2.13
2019-02-20T02:49:06.140Z,2.09
2019-02-20T02:51:38.131Z,2.06
2019-02-20T02:54:10.102Z,2.01
2019-02-20T02:56:42.069Z,1.97
2019-02-20T03:02:53.279Z,1.91
2019-02-20T03:05:25.296Z,1.93
2019-02-20T03:07:57.284Z,1.80
2019-02-20T03:10:29.273Z,1.80
2019-02-20T03:13:01.676Z,1.81
2019-02-20T03:15:33.691Z,1.79
2019-02-20T03:18:05.677Z,1.76
2019-02-20T03:20:37.691Z,1.69
2019-02-20T03:23:09.674Z,1.69
2019-02-20T03:25:41.697Z,1.58
2019-02-20T03:28:13.653Z,1.47
2019-02-20T03:30:45.642Z,1.49
2019-02-20T03:33:17.589Z,1.42
2019-02-20T03:35:49.586Z,1.47
2019-02-20T03:38:29.930Z,1.47
2019-02-20T03:40:55.475Z,1.48
2019-02-20T03:43:27.453Z,1.47
2019-02-20T03:45:59.462Z,1.48
2019-02-20T03:48:31.460Z,1.46
2019-02-20T03:51:05.271Z,1.40
2019-02-20T03:53:37.245Z,1.38
2019-02-20T03:56:09.837Z,1.39
2019-02-20T03:58:41.819Z,1.37
2019-02-20T04:01:13.782Z,1.35
2019-02-20T04:03:45.768Z,1.34
2019-02-20T04:06:17.761Z,1.20
2019-02-20T04:08:51.552Z,1.01
2019-02-20T04:11:23.540Z,0.96
2019-02-20T04:13:55.520Z,1.05
2019-02-20T04:16:27.495Z,1.07
2019-02-20T04:18:59.501Z,1.09
2019-02-20T04:21:31.473Z,1.03
2019-02-20T04:24:05.227Z,1.05
2019-02-20T04:26:38.391Z,1.12
2019-02-20T04:29:10.397Z,1.17
2019-02-20T04:31:42.427Z,1.13
2019-02-20T04:34:14.389Z,1.15
2019-02-20T04:36:46.391Z,1.15
2019-02-20T04:39:18.375Z,1.16
2019-02-20T04:41:50.372Z,1.10
2019-02-20T04:44:22.510Z,1.00
2019-02-20T04:46:54.554Z,1.00
2019-02-20T04:49:26.559Z,1.07
2019-02-20T04:51:58.537Z,1.08
2019-02-20T04:54:30.531Z,1.08
2019-02-20T04:57:02.527Z,1.12
2019-02-20T04:59:34.508Z,1.16
2019-02-20T05:02:06.495Z,1.12
2019-02-20T05:04:38.499Z,1.20
2019-02-20T05:07:10.463Z,1.19
2019-02-20T05:09:42.484Z,1.15
2019-02-20T05:12:14.447Z,1.18
2019-02-20T05:14:46.449Z,1.22
2019-02-20T05:17:18.412Z,1.24
2019-02-20T05:19:50.405Z,1.27
2019-02-20T05:22:22.488Z,1.25
2019-02-20T05:24:54.477Z,1.26
2019-02-20T05:27:26.450Z,1.28
2019-02-20T05:29:58.474Z,1.21
2019-02-20T05:32:30.462Z,1.20
2019-02-20T05:35:04.257Z,1.18
2019-02-20T05:37:36.264Z,1.18
2019-02-20T05:40:08.301Z,1.15
2019-02-20T05:42:40.280Z,1.12
2019-02-20T05:45:12.369Z,1.17
2019-02-20T05:47:44.343Z,1.12
2019-02-20T05:50:16.339Z,1.07
2019-02-20T05:52:48.336Z,1.10
2019-02-20T05:55:20.370Z,1.11
2019-02-20T05:57:53.418Z,1.09
2019-02-20T06:00:25.411Z,1.02
2019-02-20T06:02:57.392Z,1.00
2019-02-20T06:05:29.526Z,1.04
2019-02-20T06:08:01.497Z,1.10
2019-02-20T06:10:33.507Z,1.08
2019-02-20T06:13:05.481Z,1.02
2019-02-20T06:15:37.479Z,0.99
2019-02-20T06:18:09.554Z,0.95
2019-02-20T06:20:41.585Z,1.00
2019-02-20T06:23:13.560Z,0.99
2019-02-20T06:25:45.573Z,1.01
2019-02-20T06:28:17.557Z,0.96
2019-02-20T06:30:49.548Z,0.87
2019-02-20T06:33:21.539Z,0.86
2019-02-20T06:35:53.551Z,0.94
2019-02-20T06:38:25.491Z,0.95
2019-02-20T06:40:57.633Z,0.93
2019-02-20T06:43:29.733Z,0.99
2019-02-20T06:46:02.479Z,0.94
2019-02-20T06:48:34.430Z,0.94
2019-02-20T06:51:06.434Z,0.95
2019-02-20T06:53:38.442Z,0.97
2019-02-20T06:56:10.428Z,0.98
2019-02-20T06:58:42.445Z,1.09
2019-02-20T07:01:14.419Z,1.06
2019-02-20T07:03:46.415Z,1.17
2019-02-20T07:06:45.717Z,1.25
2019-02-20T07:09:55.461Z,1.30
2019-02-20T07:12:43.595Z,1.30
2019-02-20T07:16:02.824Z,1.33
2019-02-20T07:19:12.094Z,1.37
2019-02-20T07:22:22.807Z,1.36
2019-02-20T07:25:17.125Z,1.30
2019-02-20T07:28:32.814Z,1.41
2019-02-20T07:31:04.854Z,1.55
2019-02-20T07:33:38.588Z,1.62
2019-02-20T07:36:10.562Z,1.66
2019-02-20T07:38:42.557Z,1.76
2019-02-20T07:41:14.627Z,1.85
2019-02-20T07:43:46.647Z,1.94
2019-02-20T07:46:18.692Z,2.00
2019-02-20T07:48:50.699Z,2.06
2019-02-20T07:51:22.696Z,2.16
2019-02-20T07:53:54.681Z,2.24
2019-02-20T07:56:26.704Z,2.36
2019-02-20T07:58:58.786Z,2.56
2019-02-20T08:01:30.778Z,2.95
2019-02-20T08:04:02.825Z,3.27
2019-02-20T08:06:34.784Z,3.39
2019-02-20T08:09:06.778Z,3.53
2019-02-20T08:11:38.736Z,3.60
2019-02-20T08:14:10.749Z,3.67
2019-02-20T08:16:51.802Z,3.67
2019-02-20T08:19:16.678Z,3.83
2019-02-20T08:21:48.592Z,4.16
2019-02-20T08:24:20.704Z,4.33
2019-02-20T08:26:52.718Z,4.39
2019-02-20T08:29:24.742Z,4.44
2019-02-20T08:31:56.849Z,4.46
2019-02-20T08:34:28.853Z,4.66
2019-02-20T08:37:00.878Z,4.79
2019-02-20T08:39:34.707Z,4.88
2019-02-20T08:42:06.721Z,5.29
2019-02-20T08:44:38.669Z,5.45
2019-02-20T08:47:10.726Z,5.79
2019-02-20T08:49:44.516Z,5.94
2019-02-20T08:52:16.507Z,6.02
2019-02-20T08:54:48.488Z,6.11
2019-02-20T08:57:20.501Z,6.14
2019-02-20T08:59:52.456Z,6.23
2019-02-20T09:02:24.474Z,6.36
2019-02-20T09:04:56.425Z,6.31
2019-02-20T09:07:28.476Z,6.41
2019-02-20T09:10:00.445Z,6.53
2019-02-20T09:12:32.465Z,6.87
2019-02-20T09:15:05.395Z,6.99
2019-02-20T09:17:37.373Z,7.30
2019-02-20T09:20:09.852Z,7.46
2019-02-20T09:22:41.874Z,7.59
2019-02-20T09:25:19.824Z,7.73
2019-02-20T09:27:47.768Z,7.92
2019-02-20T09:30:28.041Z,7.99
2019-02-20T09:32:53.626Z,8.10
2019-02-20T09:35:25.647Z,8.06
2019-02-20T09:37:57.655Z,8.32
2019-02-20T09:40:29.637Z,8.53
2019-02-20T09:43:01.647Z,8.35
2019-02-20T09:45:41.698Z,8.47
2019-02-20T09:48:08.012Z,8.50
2019-02-20T09:50:40.005Z,8.44
2019-02-20T09:53:12.033Z,8.68
2019-02-20T09:55:51.110Z,8.88
2019-02-20T09:58:17.950Z,9.09
2019-02-20T10:00:49.925Z,9.14
2019-02-20T10:03:21.958Z,9.37
2019-02-20T10:05:53.970Z,9.44
2019-02-20T10:08:25.982Z,9.63
2019-02-20T10:10:57.966Z,9.86
2019-02-20T10:13:30.009Z,10.05
2019-02-20T10:16:01.966Z,10.13
2019-02-20T10:18:33.944Z,10.17
2019-02-20T10:21:05.950Z,10.32
2019-02-20T10:23:37.956Z,10.27
2019-02-20T10:26:09.970Z,10.51
2019-02-20T10:28:41.960Z,10.54
2019-02-20T10:31:13.997Z,10.47
2019-02-20T10:33:45.988Z,10.43
2019-02-20T10:36:17.938Z,10.42
2019-02-20T10:38:49.929Z,10.33
2019-02-20T10:41:21.957Z,10.32
2019-02-20T10:43:53.919Z,10.35
2019-02-20T10:46:25.921Z,10.44
2019-02-20T10:48:57.928Z,10.47
2019-02-20T10:51:29.904Z,10.57
2019-02-20T10:54:01.954Z,10.90
2019-02-20T10:56:33.941Z,10.86
2019-02-20T10:59:05.926Z,11.16
2019-02-20T11:01:37.951Z,11.36
2019-02-20T11:04:09.933Z,11.58
2019-02-20T11:06:42.036Z,11.63
2019-02-20T11:09:14.031Z,11.52
2019-02-20T11:11:46.056Z,11.43
2019-02-20T11:14:18.078Z,11.47
2019-02-20T11:16:50.110Z,11.71
2019-02-20T11:19:22.114Z,11.69
2019-02-20T11:21:54.127Z,11.73
2019-02-20T11:24:26.118Z,11.81
2019-02-20T11:26:58.136Z,11.92
2019-02-20T11:29:30.138Z,11.90
2019-02-20T11:32:02.122Z,11.86
2019-02-20T11:34:34.153Z,11.73
2019-02-20T11:37:06.202Z,11.81
2019-02-20T11:39:38.211Z,11.79
2019-02-20T11:42:10.232Z,11.82
2019-02-20T11:44:42.234Z,11.89
2019-02-20T11:47:14.285Z,11.95
2019-02-20T11:49:46.349Z,12.05
2019-02-20T11:52:18.530Z,12.04
2019-02-20T11:54:50.597Z,12.09
2019-02-20T11:57:22.617Z,12.13
2019-02-20T11:59:54.604Z,12.12
2019-02-20T12:02:26.669Z,12.29
2019-02-20T12:04:58.658Z,12.37
2019-02-20T12:07:30.649Z,12.52
2019-02-20T12:10:02.750Z,12.46
2019-02-20T12:12:34.821Z,12.32
2019-02-20T12:15:06.807Z,12.57
2019-02-20T12:17:38.830Z,12.57
2019-02-20T12:20:10.815Z,12.74
2019-02-20T12:22:42.844Z,12.83
2019-02-20T12:25:14.832Z,12.62
2019-02-20T12:27:46.861Z,12.58
2019-02-20T12:30:18.863Z,12.60
2019-02-20T12:32:50.872Z,12.68
2019-02-20T12:35:22.876Z,12.62
2019-02-20T12:37:54.928Z,12.63
2019-02-20T12:40:26.965Z,12.54
2019-02-20T12:42:58.980Z,12.50
2019-02-20T12:45:50.564Z,12.57
2019-02-20T12:48:22.613Z,12.76
2019-02-20T12:50:54.625Z,12.74
2019-02-20T12:53:26.662Z,12.76
2019-02-20T12:55:58.661Z,12.65
2019-02-20T12:58:30.685Z,12.68
2019-02-20T13:03:56.309Z,12.80
2019-02-20T13:06:29.770Z,12.81
2019-02-20T13:11:45.846Z,12.83
2019-02-20T13:14:17.911Z,12.85
2019-02-20T13:16:49.905Z,12.77
2019-02-20T13:19:21.961Z,12.89
2019-02-20T13:21:53.978Z,12.58
2019-02-20T13:24:25.990Z,12.55
2019-02-20T13:26:57.984Z,12.50
2019-02-20T13:29:30.073Z,12.50
2019-02-20T13:32:02.106Z,12.56
2019-02-20T13:34:34.136Z,12.71
2019-02-20T13:37:06.140Z,12.67
2019-02-20T13:39:38.191Z,12.69
2019-02-20T13:42:10.254Z,12.71
2019-02-20T13:44:44.129Z,12.60
2019-02-20T13:47:16.135Z,12.66
2019-02-20T13:49:48.161Z,12.73
2019-02-20T13:52:20.158Z,12.67
2019-02-20T13:54:52.136Z,12.80
2019-02-20T13:57:24.421Z,12.73
2019-02-20T13:59:56.440Z,12.51
2019-02-20T14:02:28.412Z,12.52
2019-02-20T14:05:00.409Z,12.69
2019-02-20T14:07:32.413Z,12.74
2019-02-20T14:10:07.719Z,12.62
2019-02-20T14:12:39.723Z,12.67
2019-02-20T14:15:11.859Z,12.51
2019-02-20T14:17:43.861Z,12.51
2019-02-20T14:20:15.870Z,12.50
2019-02-20T14:22:47.891Z,12.49
2019-02-20T14:25:19.905Z,12.44
2019-02-20T14:27:51.934Z,12.52
2019-02-20T14:30:23.907Z,12.58
2019-02-20T14:32:55.961Z,12.54
2019-02-20T14:35:27.971Z,12.63
2019-02-20T14:38:00.101Z,12.66
2019-02-20T14:40:32.073Z,12.70
2019-02-20T14:43:04.107Z,12.60
2019-02-20T14:45:36.068Z,12.53
2019-02-20T14:48:08.292Z,12.47
2019-02-20T14:50:40.237Z,12.46
2019-02-20T14:53:12.248Z,12.50
2019-02-20T14:55:44.687Z,12.43
2019-02-20T14:58:16.740Z,12.49
2019-02-20T15:00:48.814Z,12.58
2019-02-20T15:03:20.861Z,12.46
2019-02-20T15:05:52.873Z,12.45
2019-02-20T15:08:24.923Z,12.40
2019-02-20T15:10:56.930Z,12.48
2019-02-20T15:13:29.038Z,12.36
2019-02-20T15:16:01.081Z,12.40
2019-02-20T15:18:33.061Z,12.34
2019-02-20T15:21:05.107Z,12.28
2019-02-20T15:23:37.142Z,12.20
2019-02-20T15:26:09.892Z,12.15
2019-02-20T15:28:41.920Z,12.12
2019-02-20T15:31:13.959Z,12.11
2019-02-20T15:33:45.984Z,12.02
2019-02-20T15:36:18.012Z,12.05
2019-02-20T15:38:50.087Z,11.92
2019-02-20T15:41:22.097Z,11.83
2019-02-20T15:43:54.158Z,11.81
2019-02-20T15:46:26.191Z,11.78
2019-02-20T15:48:58.226Z,11.77
2019-02-20T15:51:30.513Z,11.77
2019-02-20T15:54:02.511Z,11.75
2019-02-20T15:56:34.514Z,11.74
2019-02-20T15:59:06.512Z,11.78
2019-02-20T16:01:38.708Z,11.75
2019-02-20T16:04:11.083Z,11.73
2019-02-20T16:06:44.432Z,11.69
2019-02-20T16:09:16.580Z,11.69
2019-02-20T16:11:48.604Z,11.68
2019-02-20T16:14:20.591Z,11.65
2019-02-20T16:16:52.949Z,11.62
2019-02-20T16:19:25.043Z,11.58
2019-02-20T16:21:57.053Z,11.52
2019-02-20T16:24:29.056Z,11.49
2019-02-20T16:27:01.114Z,11.45
2019-02-20T16:29:33.450Z,11.39
2019-02-20T16:32:05.548Z,11.33
2019-02-20T16:34:37.591Z,11.25
2019-02-20T16:37:09.632Z,11.16
2019-02-20T16:39:41.693Z,11.09
2019-02-20T16:42:14.021Z,10.99
2019-02-20T16:44:46.081Z,10.90
2019-02-20T16:47:18.130Z,10.80
2019-02-20T16:49:50.156Z,10.71
2019-02-20T16:52:22.192Z,10.56
2019-02-20T16:54:55.112Z,10.54
2019-02-20T16:57:27.196Z,10.37
2019-02-20T16:59:59.171Z,10.20
2019-02-20T17:02:31.215Z,10.08
2019-02-20T17:05:03.578Z,9.95
2019-02-20T17:07:35.957Z,9.81
2019-02-20T17:10:08.672Z,9.75
2019-02-20T17:12:40.716Z,9.75
2019-02-20T17:15:13.098Z,9.60
2019-02-20T17:17:45.944Z,9.57
2019-02-20T17:20:18.191Z,9.51
2019-02-20T17:22:50.310Z,9.45
2019-02-20T17:25:22.473Z,9.29
2019-02-20T17:27:54.507Z,9.22
2019-02-20T17:30:26.696Z,9.19
2019-02-20T17:32:58.753Z,9.16
2019-02-20T17:35:30.768Z,9.11
2019-02-20T17:38:02.796Z,9.02
2019-02-20T17:40:34.832Z,8.94
2019-02-20T17:43:06.962Z,8.88
2019-02-20T17:45:39.026Z,8.79
2019-02-20T17:48:11.056Z,8.74
2019-02-20T17:50:43.084Z,8.64
2019-02-20T17:53:15.088Z,8.56
2019-02-20T17:55:47.133Z,8.52
2019-02-20T17:58:19.213Z,8.47
2019-02-20T18:00:51.273Z,8.41
2019-02-20T18:03:23.331Z,8.32
2019-02-20T18:05:55.425Z,8.27
2019-02-20T18:08:27.453Z,8.23
2019-02-20T18:11:01.453Z,8.16
2019-02-20T18:13:33.463Z,8.09
2019-02-20T18:16:05.527Z,8.00
2019-02-20T18:18:37.573Z,7.96
2019-02-20T18:21:09.682Z,7.87
2019-02-20T18:23:41.724Z,7.78
2019-02-20T18:26:13.884Z,7.62
2019-02-20T18:28:45.896Z,7.58
2019-02-20T18:31:17.972Z,7.50
2019-02-20T18:33:50.027Z,7.49
2019-02-20T18:36:22.151Z,7.42
2019-02-20T18:38:54.198Z,7.35
2019-02-20T18:41:26.268Z,7.30
2019-02-20T18:43:58.286Z,7.26
2019-02-20T18:46:30.343Z,7.16
2019-02-20T18:49:02.348Z,7.09
2019-02-20T18:51:34.509Z,7.08
2019-02-20T18:54:06.556Z,6.96
2019-02-20T18:56:38.603Z,6.92
2019-02-20T18:59:10.677Z,6.93
2019-02-20T19:01:42.724Z,6.78
2019-02-20T19:04:14.801Z,6.73
2019-02-20T19:06:46.848Z,6.71
2019-02-20T19:09:25.313Z,6.64
2019-02-20T19:12:32.430Z,6.53
2019-02-20T19:16:04.205Z,6.48
2019-02-20T19:19:07.751Z,6.44
2019-02-20T19:22:08.295Z,6.43
2019-02-20T19:25:18.161Z,6.38
2019-02-20T19:28:15.557Z,6.37
2019-02-20T19:31:31.656Z,6.31
2019-02-20T19:34:54.947Z,6.25
2019-02-20T19:38:09.411Z,6.24
2019-02-20T19:41:38.181Z,6.15
2019-02-20T19:44:44.945Z,6.09
2019-02-20T19:47:24.754Z,6.00
2019-02-20T19:50:23.339Z,6.07
2019-02-20T19:53:34.325Z,6.04
2019-02-20T19:56:45.331Z,6.05
2019-02-20T19:59:56.344Z,6.03
2019-02-20T20:03:07.263Z,6.01
2019-02-20T20:06:18.221Z,5.96
2019-02-20T20:09:29.221Z,5.90
2019-02-20T20:12:30.397Z,5.85
2019-02-20T20:15:25.983Z,5.87
2019-02-20T20:18:36.946Z,5.80
2019-02-20T20:21:47.933Z,5.80
2019-02-20T20:24:58.978Z,5.82
2019-02-20T20:28:09.957Z,5.77
2019-02-20T20:31:20.909Z,5.67
2019-02-20T20:34:24.951Z,5.61
2019-02-20T20:37:46.929Z,5.51
2019-02-20T20:40:37.488Z,5.45
2019-02-20T20:43:31.026Z,5.33
2019-02-20T20:46:59.326Z,5.33
2019-02-20T20:50:28.057Z,5.28
2019-02-20T20:53:40.879Z,5.25
2019-02-20T20:56:42.790Z,5.22
2019-02-20T20:59:45.388Z,5.22
2019-02-20T21:02:35.445Z,5.06
2019-02-20T21:05:49.052Z,5.18
2019-02-20T21:08:54.659Z,5.26
2019-02-20T21:12:07.426Z,5.32
2019-02-20T21:15:05.876Z,5.32
2019-02-20T21:18:31.777Z,5.34
2019-02-20T21:21:38.627Z,5.26
2019-02-20T21:24:43.804Z,5.26
2019-02-20T21:27:36.601Z,5.23
2019-02-20T21:30:44.111Z,5.22
2019-02-20T21:33:48.488Z,5.16
2019-02-20T21:36:54.555Z,5.19
2019-02-20T21:40:06.918Z,5.13
2019-02-20T21:43:09.396Z,5.16
2019-02-20T21:46:27.095Z,5.02
2019-02-20T21:49:34.617Z,4.83
2019-02-20T21:52:36.529Z,4.79
2019-02-20T21:55:57.223Z,4.82
2019-02-20T21:58:39.302Z,4.79
2019-02-20T22:02:17.677Z,4.78
2019-02-20T22:05:17.390Z,4.74
2019-02-20T22:08:16.568Z,4.68
2019-02-20T22:11:48.397Z,4.65
2019-02-20T22:14:52.631Z,4.65
2019-02-20T22:17:59.392Z,4.70
2019-02-20T22:21:31.051Z,4.76
2019-02-20T22:25:06.312Z,4.79
2019-02-20T22:28:28.914Z,4.84
2019-02-20T22:31:30.435Z,4.77
2019-02-20T22:34:16.927Z,4.63
2019-02-20T22:37:45.114Z,4.65
2019-02-20T22:41:01.245Z,4.63
2019-02-20T22:44:10.147Z,4.55
2019-02-20T22:47:11.253Z,4.61
2019-02-20T22:50:22.422Z,4.56
2019-02-20T22:53:50.172Z,4.43
2019-02-20T22:56:59.094Z,4.43
2019-02-20T23:00:14.155Z,4.39
2019-02-20T23:03:17.352Z,4.47
2019-02-20T23:06:29.549Z,4.37
2019-02-20T23:09:40.509Z,4.30
2019-02-20T23:12:36.115Z,4.22
2019-02-20T23:15:08.101Z,4.19
2019-02-20T23:17:40.137Z,4.17
2019-02-20T23:20:12.153Z,4.06
2019-02-20T23:22:44.188Z,4.02
2019-02-20T23:25:16.182Z,3.97
2019-02-20T23:27:48.166Z,3.94
2019-02-20T23:30:20.155Z,3.93
2019-02-20T23:32:52.165Z,3.90
2019-02-20T23:35:24.109Z,3.86
2019-02-20T23:37:56.224Z,3.85
2019-02-20T23:40:28.222Z,3.83
2019-02-20T23:43:00.274Z,3.78
2019-02-20T23:45:32.254Z,3.80
2019-02-20T23:48:04.256Z,3.80
2019-02-20T23:50:36.270Z,3.74
2019-02-20T23:53:08.308Z,3.69
2019-02-20T23:55:40.295Z,3.65
2019-02-20T23:58:12.280Z,3.63
